sensor_id;sensor_type;location;lat;lon;timestamp;temperature;humidity
20735;DHT22;10528;52.124;5.196;2022-12-07T00:01:45;4.70;99.90
20735;DHT22;10528;52.124;5.196;2022-12-07T00:04:15;4.80;99.90
20735;DHT22;10528;52.124;5.196;2022-12-07T00:06:45;4.80;99.90
20735;DHT22;10528;52.124;5.196;2022-12-07T00:09:17;4.90;99.90
20735;DHT22;10528;52.124;5.196;2022-12-07T00:11:45;5.00;99.90
20735;DHT22;10528;52.124;5.196;2022-12-07T00:14:17;5.00;99.90
20735;DHT22;10528;52.124;5.196;2022-12-07T00:16:44;5.00;99.90
20735;DHT22;10528;52.124;5.196;2022-12-07T00:19:13;5.00;99.90
20735;DHT22;10528;52.124;5.196;2022-12-07T00:21:41;4.90;99.90
20735;DHT22;10528;52.124;5.196;2022-12-07T00:24:10;4.90;99.90
20735;DHT22;10528;52.124;5.196;2022-12-07T00:26:39;4.90;99.90
20735;DHT22;10528;52.124;5.196;2022-12-07T00:29:19;4.90;99.90
20735;DHT22;10528;52.124;5.196;2022-12-07T00:31:47;4.80;99.90
20735;DHT22;10528;52.124;5.196;2022-12-07T00:34:16;4.80;99.90
20735;DHT22;10528;52.124;5.196;2022-12-07T00:36:45;4.80;99.90
20735;DHT22;10528;52.124;5.196;2022-12-07T00:39:12;4.80;99.90
20735;DHT22;10528;52.124;5.196;2022-12-07T00:41:39;4.80;99.90
20735;DHT22;10528;52.124;5.196;2022-12-07T00:44:06;4.60;99.90
20735;DHT22;10528;52.124;5.196;2022-12-07T00:46:33;4.60;99.90
20735;DHT22;10528;52.124;5.196;2022-12-07T00:49:00;4.50;99.90
20735;DHT22;10528;52.124;5.196;2022-12-07T00:51:27;4.40;99.90
20735;DHT22;10528;52.124;5.196;2022-12-07T00:53:54;4.30;99.90
20735;DHT22;10528;52.124;5.196;2022-12-07T00:56:26;4.20;99.90
20735;DHT22;10528;52.124;5.196;2022-12-07T00:58:59;4.20;99.90
20735;DHT22;10528;52.124;5.196;2022-12-07T01:01:29;4.10;99.90
20735;DHT22;10528;52.124;5.196;2022-12-07T01:03:58;4.10;99.90
20735;DHT22;10528;52.124;5.196;2022-12-07T01:06:28;4.10;99.90
20735;DHT22;10528;52.124;5.196;2022-12-07T01:08:56;4.10;99.90
20735;DHT22;10528;52.124;5.196;2022-12-07T01:11:26;4.10;99.90
20735;DHT22;10528;52.124;5.196;2022-12-07T01:13:57;4.10;99.90
20735;DHT22;10528;52.124;5.196;2022-12-07T01:16:27;4.20;99.90
20735;DHT22;10528;52.124;5.196;2022-12-07T01:18:57;4.20;99.90
20735;DHT22;10528;52.124;5.196;2022-12-07T01:21:30;4.30;99.90
20735;DHT22;10528;52.124;5.196;2022-12-07T01:24:03;4.20;99.90
20735;DHT22;10528;52.124;5.196;2022-12-07T01:26:32;4.10;99.90
20735;DHT22;10528;52.124;5.196;2022-12-07T01:28:59;4.10;99.90
20735;DHT22;10528;52.124;5.196;2022-12-07T01:31:28;4.10;99.90
20735;DHT22;10528;52.124;5.196;2022-12-07T01:33:58;4.10;99.90
20735;DHT22;10528;52.124;5.196;2022-12-07T01:36:35;4.00;99.90
20735;DHT22;10528;52.124;5.196;2022-12-07T01:39:05;4.00;99.90
20735;DHT22;10528;52.124;5.196;2022-12-07T01:41:35;3.90;99.90
20735;DHT22;10528;52.124;5.196;2022-12-07T01:44:27;3.90;99.90
20735;DHT22;10528;52.124;5.196;2022-12-07T01:47:01;3.90;99.90
20735;DHT22;10528;52.124;5.196;2022-12-07T01:49:38;3.90;99.90
20735;DHT22;10528;52.124;5.196;2022-12-07T01:52:24;3.80;99.90
20735;DHT22;10528;52.124;5.196;2022-12-07T01:54:59;3.70;99.90
20735;DHT22;10528;52.124;5.196;2022-12-07T01:57:32;3.70;99.90
20735;DHT22;10528;52.124;5.196;2022-12-07T02:00:01;3.70;99.90
20735;DHT22;10528;52.124;5.196;2022-12-07T02:02:46;3.90;99.90
20735;DHT22;10528;52.124;5.196;2022-12-07T02:05:18;3.90;99.90
20735;DHT22;10528;52.124;5.196;2022-12-07T02:07:47;4.10;99.90
20735;DHT22;10528;52.124;5.196;2022-12-07T02:10:19;4.20;99.90
20735;DHT22;10528;52.124;5.196;2022-12-07T02:12:58;4.40;99.90
20735;DHT22;10528;52.124;5.196;2022-12-07T02:16:13;4.50;99.90
20735;DHT22;10528;52.124;5.196;2022-12-07T02:22:01;4.60;99.90
20735;DHT22;10528;52.124;5.196;2022-12-07T02:24:49;4.60;99.90
20735;DHT22;10528;52.124;5.196;2022-12-07T02:28:26;4.60;99.90
20735;DHT22;10528;52.124;5.196;2022-12-07T02:30:31;4.70;99.90
20735;DHT22;10528;52.124;5.196;2022-12-07T02:36:02;4.70;99.90
20735;DHT22;10528;52.124;5.196;2022-12-07T02:38:51;4.60;99.90
20735;DHT22;10528;52.124;5.196;2022-12-07T02:41:42;4.60;99.90
20735;DHT22;10528;52.124;5.196;2022-12-07T02:44:19;4.60;99.90
20735;DHT22;10528;52.124;5.196;2022-12-07T02:46:56;4.50;99.90
20735;DHT22;10528;52.124;5.196;2022-12-07T02:49:36;4.50;99.90
20735;DHT22;10528;52.124;5.196;2022-12-07T02:52:05;4.40;99.90
20735;DHT22;10528;52.124;5.196;2022-12-07T02:54:32;4.30;99.90
20735;DHT22;10528;52.124;5.196;2022-12-07T03:02:46;4.20;99.90
20735;DHT22;10528;52.124;5.196;2022-12-07T03:08:16;4.30;99.90
20735;DHT22;10528;52.124;5.196;2022-12-07T03:14:00;4.80;99.90
20735;DHT22;10528;52.124;5.196;2022-12-07T03:16:42;4.80;99.90
20735;DHT22;10528;52.124;5.196;2022-12-07T03:19:18;4.80;99.90
20735;DHT22;10528;52.124;5.196;2022-12-07T03:21:53;4.70;99.90
20735;DHT22;10528;52.124;5.196;2022-12-07T03:24:35;4.70;99.90
20735;DHT22;10528;52.124;5.196;2022-12-07T03:27:15;4.60;99.90
20735;DHT22;10528;52.124;5.196;2022-12-07T03:29:53;4.50;99.90
20735;DHT22;10528;52.124;5.196;2022-12-07T03:35:27;4.30;99.90
20735;DHT22;10528;52.124;5.196;2022-12-07T03:38:23;4.20;99.90
20735;DHT22;10528;52.124;5.196;2022-12-07T03:43:55;4.00;99.90
20735;DHT22;10528;52.124;5.196;2022-12-07T03:52:47;4.00;99.90
20735;DHT22;10528;52.124;5.196;2022-12-07T03:55:34;4.00;99.90
20735;DHT22;10528;52.124;5.196;2022-12-07T03:58:12;3.90;99.90
20735;DHT22;10528;52.124;5.196;2022-12-07T04:00:46;4.00;99.90
20735;DHT22;10528;52.124;5.196;2022-12-07T04:03:13;3.90;99.90
20735;DHT22;10528;52.124;5.196;2022-12-07T04:05:40;3.80;99.90
20735;DHT22;10528;52.124;5.196;2022-12-07T04:08:08;3.90;99.90
20735;DHT22;10528;52.124;5.196;2022-12-07T04:10:36;3.90;99.90
20735;DHT22;10528;52.124;5.196;2022-12-07T04:13:03;3.80;99.90
20735;DHT22;10528;52.124;5.196;2022-12-07T04:15:30;3.90;99.90
20735;DHT22;10528;52.124;5.196;2022-12-07T04:17:57;3.90;99.90
20735;DHT22;10528;52.124;5.196;2022-12-07T04:20:23;3.90;99.90
20735;DHT22;10528;52.124;5.196;2022-12-07T04:22:50;3.80;99.90
20735;DHT22;10528;52.124;5.196;2022-12-07T04:25:17;3.70;99.90
20735;DHT22;10528;52.124;5.196;2022-12-07T04:27:44;3.70;99.90
20735;DHT22;10528;52.124;5.196;2022-12-07T04:30:11;3.70;99.90
20735;DHT22;10528;52.124;5.196;2022-12-07T04:32:38;3.60;99.90
20735;DHT22;10528;52.124;5.196;2022-12-07T04:35:05;3.70;99.90
20735;DHT22;10528;52.124;5.196;2022-12-07T04:37:33;3.70;99.90
20735;DHT22;10528;52.124;5.196;2022-12-07T04:40:00;3.80;99.90
20735;DHT22;10528;52.124;5.196;2022-12-07T04:42:27;4.00;99.90
20735;DHT22;10528;52.124;5.196;2022-12-07T04:44:54;4.10;99.90
20735;DHT22;10528;52.124;5.196;2022-12-07T04:47:21;4.30;99.90
20735;DHT22;10528;52.124;5.196;2022-12-07T04:49:48;4.20;99.90
20735;DHT22;10528;52.124;5.196;2022-12-07T04:52:14;4.30;99.90
20735;DHT22;10528;52.124;5.196;2022-12-07T04:54:41;4.30;99.90
20735;DHT22;10528;52.124;5.196;2022-12-07T04:57:08;4.20;99.90
20735;DHT22;10528;52.124;5.196;2022-12-07T04:59:35;4.20;99.90
20735;DHT22;10528;52.124;5.196;2022-12-07T05:02:07;4.10;99.90
20735;DHT22;10528;52.124;5.196;2022-12-07T05:04:34;4.10;99.90
20735;DHT22;10528;52.124;5.196;2022-12-07T05:07:01;4.00;99.90
20735;DHT22;10528;52.124;5.196;2022-12-07T05:09:28;3.80;99.90
20735;DHT22;10528;52.124;5.196;2022-12-07T05:11:55;3.80;99.90
20735;DHT22;10528;52.124;5.196;2022-12-07T05:14:21;3.90;99.90
20735;DHT22;10528;52.124;5.196;2022-12-07T05:16:49;3.80;99.90
20735;DHT22;10528;52.124;5.196;2022-12-07T05:19:18;3.80;99.90
20735;DHT22;10528;52.124;5.196;2022-12-07T05:21:46;3.70;99.90
20735;DHT22;10528;52.124;5.196;2022-12-07T05:24:14;3.70;99.90
20735;DHT22;10528;52.124;5.196;2022-12-07T05:26:43;3.70;99.90
20735;DHT22;10528;52.124;5.196;2022-12-07T05:29:13;3.60;99.90
20735;DHT22;10528;52.124;5.196;2022-12-07T05:31:41;3.60;99.90
20735;DHT22;10528;52.124;5.196;2022-12-07T05:34:09;3.50;99.90
20735;DHT22;10528;52.124;5.196;2022-12-07T05:36:37;3.50;99.90
20735;DHT22;10528;52.124;5.196;2022-12-07T05:39:04;3.40;99.90
20735;DHT22;10528;52.124;5.196;2022-12-07T05:41:31;3.40;99.90
20735;DHT22;10528;52.124;5.196;2022-12-07T05:44:16;3.40;99.90
20735;DHT22;10528;52.124;5.196;2022-12-07T05:46:43;3.40;99.90
20735;DHT22;10528;52.124;5.196;2022-12-07T05:49:10;3.40;99.90
20735;DHT22;10528;52.124;5.196;2022-12-07T05:51:37;3.40;99.90
20735;DHT22;10528;52.124;5.196;2022-12-07T05:54:04;3.50;99.90
20735;DHT22;10528;52.124;5.196;2022-12-07T05:56:31;3.50;99.90
20735;DHT22;10528;52.124;5.196;2022-12-07T05:58:57;3.50;99.90
20735;DHT22;10528;52.124;5.196;2022-12-07T06:02:02;3.50;99.90
20735;DHT22;10528;52.124;5.196;2022-12-07T06:04:38;3.50;99.90
20735;DHT22;10528;52.124;5.196;2022-12-07T06:07:08;3.40;99.90
20735;DHT22;10528;52.124;5.196;2022-12-07T06:09:35;3.40;99.90
20735;DHT22;10528;52.124;5.196;2022-12-07T06:12:04;3.30;99.90
20735;DHT22;10528;52.124;5.196;2022-12-07T06:14:50;3.20;99.90
20735;DHT22;10528;52.124;5.196;2022-12-07T06:17:17;3.20;99.90
20735;DHT22;10528;52.124;5.196;2022-12-07T06:19:44;3.20;99.90
20735;DHT22;10528;52.124;5.196;2022-12-07T06:22:11;3.30;99.90
20735;DHT22;10528;52.124;5.196;2022-12-07T06:24:39;3.40;99.90
20735;DHT22;10528;52.124;5.196;2022-12-07T06:27:06;3.40;99.90
20735;DHT22;10528;52.124;5.196;2022-12-07T06:29:34;3.40;99.90
20735;DHT22;10528;52.124;5.196;2022-12-07T06:32:00;3.30;99.90
20735;DHT22;10528;52.124;5.196;2022-12-07T06:34:27;3.30;99.90
20735;DHT22;10528;52.124;5.196;2022-12-07T06:36:54;3.20;99.90
20735;DHT22;10528;52.124;5.196;2022-12-07T06:39:24;3.20;99.90
20735;DHT22;10528;52.124;5.196;2022-12-07T06:41:52;3.10;99.90
20735;DHT22;10528;52.124;5.196;2022-12-07T06:44:21;3.10;99.90
20735;DHT22;10528;52.124;5.196;2022-12-07T06:46:49;3.10;99.90
20735;DHT22;10528;52.124;5.196;2022-12-07T06:49:17;3.20;99.90
20735;DHT22;10528;52.124;5.196;2022-12-07T06:51:44;3.20;99.90
20735;DHT22;10528;52.124;5.196;2022-12-07T06:54:13;3.30;99.90
20735;DHT22;10528;52.124;5.196;2022-12-07T06:56:41;3.30;99.90
20735;DHT22;10528;52.124;5.196;2022-12-07T06:59:08;3.20;99.90
20735;DHT22;10528;52.124;5.196;2022-12-07T07:01:35;3.20;99.90
20735;DHT22;10528;52.124;5.196;2022-12-07T07:04:02;3.20;99.90
20735;DHT22;10528;52.124;5.196;2022-12-07T07:06:30;3.20;99.90
20735;DHT22;10528;52.124;5.196;2022-12-07T07:08:56;3.30;99.90
20735;DHT22;10528;52.124;5.196;2022-12-07T07:11:23;3.30;99.90
20735;DHT22;10528;52.124;5.196;2022-12-07T07:13:50;3.30;99.90
20735;DHT22;10528;52.124;5.196;2022-12-07T07:16:17;3.40;99.90
20735;DHT22;10528;52.124;5.196;2022-12-07T07:18:44;3.30;99.90
20735;DHT22;10528;52.124;5.196;2022-12-07T07:21:11;3.30;99.90
20735;DHT22;10528;52.124;5.196;2022-12-07T07:23:38;3.30;99.90
20735;DHT22;10528;52.124;5.196;2022-12-07T07:26:04;3.30;99.90
20735;DHT22;10528;52.124;5.196;2022-12-07T07:28:31;3.30;99.90
20735;DHT22;10528;52.124;5.196;2022-12-07T07:30:58;3.20;99.90
20735;DHT22;10528;52.124;5.196;2022-12-07T07:33:25;3.10;99.90
20735;DHT22;10528;52.124;5.196;2022-12-07T07:35:52;3.10;99.90
20735;DHT22;10528;52.124;5.196;2022-12-07T07:38:19;3.00;99.90
20735;DHT22;10528;52.124;5.196;2022-12-07T07:40:46;3.00;99.90
20735;DHT22;10528;52.124;5.196;2022-12-07T07:43:12;3.00;99.90
20735;DHT22;10528;52.124;5.196;2022-12-07T07:45:39;2.90;99.90
20735;DHT22;10528;52.124;5.196;2022-12-07T07:48:07;3.00;99.90
20735;DHT22;10528;52.124;5.196;2022-12-07T07:50:34;3.00;99.90
20735;DHT22;10528;52.124;5.196;2022-12-07T07:53:01;2.90;99.90
20735;DHT22;10528;52.124;5.196;2022-12-07T07:55:27;2.80;99.90
20735;DHT22;10528;52.124;5.196;2022-12-07T07:57:55;2.90;99.90
20735;DHT22;10528;52.124;5.196;2022-12-07T08:00:22;2.90;99.90
20735;DHT22;10528;52.124;5.196;2022-12-07T08:02:49;2.90;99.90
20735;DHT22;10528;52.124;5.196;2022-12-07T08:05:16;2.90;99.90
20735;DHT22;10528;52.124;5.196;2022-12-07T08:07:44;2.90;99.90
20735;DHT22;10528;52.124;5.196;2022-12-07T08:10:12;2.90;99.90
20735;DHT22;10528;52.124;5.196;2022-12-07T08:12:42;2.90;99.90
20735;DHT22;10528;52.124;5.196;2022-12-07T08:15:29;2.90;99.90
20735;DHT22;10528;52.124;5.196;2022-12-07T08:17:57;2.90;99.90
20735;DHT22;10528;52.124;5.196;2022-12-07T08:20:25;2.80;99.90
20735;DHT22;10528;52.124;5.196;2022-12-07T08:22:54;2.90;99.90
20735;DHT22;10528;52.124;5.196;2022-12-07T08:25:20;3.00;99.90
20735;DHT22;10528;52.124;5.196;2022-12-07T08:27:50;3.20;99.90
20735;DHT22;10528;52.124;5.196;2022-12-07T08:30:18;3.40;99.90
20735;DHT22;10528;52.124;5.196;2022-12-07T08:32:45;3.70;99.90
20735;DHT22;10528;52.124;5.196;2022-12-07T08:35:14;4.00;99.90
20735;DHT22;10528;52.124;5.196;2022-12-07T08:37:41;4.00;99.90
20735;DHT22;10528;52.124;5.196;2022-12-07T08:40:11;4.10;99.90
20735;DHT22;10528;52.124;5.196;2022-12-07T08:42:42;4.20;99.90
20735;DHT22;10528;52.124;5.196;2022-12-07T08:45:13;4.40;99.90
20735;DHT22;10528;52.124;5.196;2022-12-07T08:47:52;4.50;99.90
20735;DHT22;10528;52.124;5.196;2022-12-07T08:50:24;4.50;99.90
20735;DHT22;10528;52.124;5.196;2022-12-07T08:52:54;4.60;99.90
20735;DHT22;10528;52.124;5.196;2022-12-07T08:55:23;4.60;99.90
20735;DHT22;10528;52.124;5.196;2022-12-07T08:57:50;4.70;99.90
20735;DHT22;10528;52.124;5.196;2022-12-07T09:00:17;4.70;99.90
20735;DHT22;10528;52.124;5.196;2022-12-07T09:02:45;4.80;99.90
20735;DHT22;10528;52.124;5.196;2022-12-07T09:05:13;4.80;99.90
20735;DHT22;10528;52.124;5.196;2022-12-07T09:07:46;4.90;99.90
20735;DHT22;10528;52.124;5.196;2022-12-07T09:10:17;4.90;99.90
20735;DHT22;10528;52.124;5.196;2022-12-07T09:12:44;5.00;99.90
20735;DHT22;10528;52.124;5.196;2022-12-07T09:15:11;5.00;99.90
20735;DHT22;10528;52.124;5.196;2022-12-07T09:17:38;5.00;99.90
20735;DHT22;10528;52.124;5.196;2022-12-07T09:20:05;5.10;99.90
20735;DHT22;10528;52.124;5.196;2022-12-07T09:22:33;5.10;99.90
20735;DHT22;10528;52.124;5.196;2022-12-07T09:25:00;5.20;99.90
20735;DHT22;10528;52.124;5.196;2022-12-07T09:27:27;5.20;99.90
20735;DHT22;10528;52.124;5.196;2022-12-07T09:29:54;5.20;99.90
20735;DHT22;10528;52.124;5.196;2022-12-07T09:32:21;5.20;99.90
20735;DHT22;10528;52.124;5.196;2022-12-07T09:34:49;5.10;99.90
20735;DHT22;10528;52.124;5.196;2022-12-07T09:37:16;5.30;99.90
20735;DHT22;10528;52.124;5.196;2022-12-07T09:39:43;5.50;99.90
20735;DHT22;10528;52.124;5.196;2022-12-07T09:42:38;5.80;99.90
20735;DHT22;10528;52.124;5.196;2022-12-07T09:45:15;5.90;99.90
20735;DHT22;10528;52.124;5.196;2022-12-07T09:47:48;5.90;99.90
20735;DHT22;10528;52.124;5.196;2022-12-07T09:50:20;5.90;99.90
20735;DHT22;10528;52.124;5.196;2022-12-07T09:52:50;5.90;99.90
20735;DHT22;10528;52.124;5.196;2022-12-07T09:55:27;5.90;99.90
20735;DHT22;10528;52.124;5.196;2022-12-07T09:57:55;6.00;99.90
20735;DHT22;10528;52.124;5.196;2022-12-07T10:00:24;6.10;99.90
20735;DHT22;10528;52.124;5.196;2022-12-07T10:03:02;6.10;99.90
20735;DHT22;10528;52.124;5.196;2022-12-07T10:05:32;6.10;99.90
20735;DHT22;10528;52.124;5.196;2022-12-07T10:08:04;6.20;99.90
20735;DHT22;10528;52.124;5.196;2022-12-07T10:10:33;6.20;99.90
20735;DHT22;10528;52.124;5.196;2022-12-07T10:13:12;6.20;99.90
20735;DHT22;10528;52.124;5.196;2022-12-07T10:15:43;6.20;99.90
20735;DHT22;10528;52.124;5.196;2022-12-07T10:18:24;6.10;99.90
20735;DHT22;10528;52.124;5.196;2022-12-07T10:21:12;6.10;99.90
20735;DHT22;10528;52.124;5.196;2022-12-07T10:24:02;6.20;99.90
20735;DHT22;10528;52.124;5.196;2022-12-07T10:26:38;6.20;99.90
20735;DHT22;10528;52.124;5.196;2022-12-07T10:29:22;6.50;99.90
20735;DHT22;10528;52.124;5.196;2022-12-07T10:32:05;6.50;99.90
20735;DHT22;10528;52.124;5.196;2022-12-07T10:34:50;6.60;99.90
20735;DHT22;10528;52.124;5.196;2022-12-07T10:37:20;6.70;99.90
20735;DHT22;10528;52.124;5.196;2022-12-07T10:39:48;6.90;99.90
20735;DHT22;10528;52.124;5.196;2022-12-07T10:42:29;6.90;99.90
20735;DHT22;10528;52.124;5.196;2022-12-07T10:45:17;6.90;99.90
20735;DHT22;10528;52.124;5.196;2022-12-07T10:53:28;6.90;99.90
20735;DHT22;10528;52.124;5.196;2022-12-07T11:11:47;6.60;99.90
20735;DHT22;10528;52.124;5.196;2022-12-07T11:14:35;6.60;99.90
20735;DHT22;10528;52.124;5.196;2022-12-07T11:17:20;6.60;99.90
20735;DHT22;10528;52.124;5.196;2022-12-07T11:20:05;6.60;99.90
20735;DHT22;10528;52.124;5.196;2022-12-07T11:26:20;6.50;99.90
20735;DHT22;10528;52.124;5.196;2022-12-07T11:38:09;6.80;99.90
20735;DHT22;10528;52.124;5.196;2022-12-07T11:40:45;6.60;99.90
20735;DHT22;10528;52.124;5.196;2022-12-07T11:43:26;6.60;99.90
20735;DHT22;10528;52.124;5.196;2022-12-07T11:46:16;6.50;99.90
20735;DHT22;10528;52.124;5.196;2022-12-07T11:51:46;6.50;99.90
20735;DHT22;10528;52.124;5.196;2022-12-07T11:54:23;6.50;99.90
20735;DHT22;10528;52.124;5.196;2022-12-07T11:57:02;6.60;99.90
20735;DHT22;10528;52.124;5.196;2022-12-07T11:59:40;6.70;99.90
20735;DHT22;10528;52.124;5.196;2022-12-07T12:02:18;6.60;99.90
20735;DHT22;10528;52.124;5.196;2022-12-07T12:04:59;6.60;99.90
20735;DHT22;10528;52.124;5.196;2022-12-07T12:07:33;6.70;99.90
20735;DHT22;10528;52.124;5.196;2022-12-07T12:13:47;6.70;99.90
20735;DHT22;10528;52.124;5.196;2022-12-07T12:20:19;6.80;99.90
20735;DHT22;10528;52.124;5.196;2022-12-07T12:23:01;6.70;99.90
20735;DHT22;10528;52.124;5.196;2022-12-07T12:25:55;6.80;99.90
20735;DHT22;10528;52.124;5.196;2022-12-07T12:28:49;6.80;99.90
20735;DHT22;10528;52.124;5.196;2022-12-07T12:33:56;7.00;99.90
20735;DHT22;10528;52.124;5.196;2022-12-07T12:36:26;7.00;99.90
20735;DHT22;10528;52.124;5.196;2022-12-07T12:39:19;7.00;99.90
20735;DHT22;10528;52.124;5.196;2022-12-07T12:41:51;7.00;99.90
20735;DHT22;10528;52.124;5.196;2022-12-07T12:46:55;7.10;99.90
20735;DHT22;10528;52.124;5.196;2022-12-07T12:51:58;7.20;99.90
20735;DHT22;10528;52.124;5.196;2022-12-07T12:54:36;7.30;99.90
20735;DHT22;10528;52.124;5.196;2022-12-07T12:57:12;7.50;99.90
20735;DHT22;10528;52.124;5.196;2022-12-07T13:02:34;7.60;99.90
20735;DHT22;10528;52.124;5.196;2022-12-07T13:23:37;7.10;99.90
20735;DHT22;10528;52.124;5.196;2022-12-07T13:26:26;7.10;99.90
20735;DHT22;10528;52.124;5.196;2022-12-07T13:31:45;7.10;99.90
20735;DHT22;10528;52.124;5.196;2022-12-07T13:37:15;7.10;99.90
20735;DHT22;10528;52.124;5.196;2022-12-07T13:39:57;7.20;99.90
20735;DHT22;10528;52.124;5.196;2022-12-07T13:42:30;7.10;99.90
20735;DHT22;10528;52.124;5.196;2022-12-07T13:45:17;7.20;99.90
20735;DHT22;10528;52.124;5.196;2022-12-07T13:48:43;7.10;99.90
20735;DHT22;10528;52.124;5.196;2022-12-07T13:51:27;7.00;99.90
20735;DHT22;10528;52.124;5.196;2022-12-07T13:53:59;7.00;99.90
20735;DHT22;10528;52.124;5.196;2022-12-07T13:56:34;6.90;99.90
20735;DHT22;10528;52.124;5.196;2022-12-07T13:59:02;6.80;99.90
20735;DHT22;10528;52.124;5.196;2022-12-07T14:01:32;6.90;99.90
20735;DHT22;10528;52.124;5.196;2022-12-07T14:04:19;6.90;99.90
20735;DHT22;10528;52.124;5.196;2022-12-07T14:07:32;6.80;99.90
20735;DHT22;10528;52.124;5.196;2022-12-07T14:10:03;6.80;99.90
20735;DHT22;10528;52.124;5.196;2022-12-07T14:12:36;6.80;99.90
20735;DHT22;10528;52.124;5.196;2022-12-07T14:15:03;6.70;99.90
20735;DHT22;10528;52.124;5.196;2022-12-07T14:17:32;6.70;99.90
20735;DHT22;10528;52.124;5.196;2022-12-07T14:20:01;6.70;99.90
20735;DHT22;10528;52.124;5.196;2022-12-07T14:22:38;6.70;99.90
20735;DHT22;10528;52.124;5.196;2022-12-07T14:25:17;6.60;99.90
20735;DHT22;10528;52.124;5.196;2022-12-07T14:30:25;6.70;99.90
20735;DHT22;10528;52.124;5.196;2022-12-07T14:33:02;6.70;99.90
20735;DHT22;10528;52.124;5.196;2022-12-07T14:35:31;6.60;99.90
20735;DHT22;10528;52.124;5.196;2022-12-07T14:37:58;6.60;99.90
20735;DHT22;10528;52.124;5.196;2022-12-07T14:40:28;6.60;99.90
20735;DHT22;10528;52.124;5.196;2022-12-07T14:43:02;6.60;99.90
20735;DHT22;10528;52.124;5.196;2022-12-07T14:45:31;6.50;99.90
20735;DHT22;10528;52.124;5.196;2022-12-07T14:47:58;6.50;99.90
20735;DHT22;10528;52.124;5.196;2022-12-07T14:50:49;6.50;99.90
20735;DHT22;10528;52.124;5.196;2022-12-07T14:53:46;6.50;99.90
20735;DHT22;10528;52.124;5.196;2022-12-07T14:56:23;6.50;99.90
20735;DHT22;10528;52.124;5.196;2022-12-07T14:58:51;6.50;99.90
20735;DHT22;10528;52.124;5.196;2022-12-07T15:01:18;6.50;99.90
20735;DHT22;10528;52.124;5.196;2022-12-07T15:03:45;6.50;99.90
20735;DHT22;10528;52.124;5.196;2022-12-07T15:06:17;6.50;99.90
20735;DHT22;10528;52.124;5.196;2022-12-07T15:08:45;6.60;99.90
20735;DHT22;10528;52.124;5.196;2022-12-07T15:11:14;6.60;99.90
20735;DHT22;10528;52.124;5.196;2022-12-07T15:13:42;6.60;99.90
20735;DHT22;10528;52.124;5.196;2022-12-07T15:16:28;6.50;99.90
20735;DHT22;10528;52.124;5.196;2022-12-07T15:19:20;6.40;99.90
20735;DHT22;10528;52.124;5.196;2022-12-07T15:21:56;6.40;99.90
20735;DHT22;10528;52.124;5.196;2022-12-07T15:24:24;6.40;99.90
20735;DHT22;10528;52.124;5.196;2022-12-07T15:26:52;6.40;99.90
20735;DHT22;10528;52.124;5.196;2022-12-07T15:29:20;6.40;99.90
20735;DHT22;10528;52.124;5.196;2022-12-07T15:31:52;6.30;99.90
20735;DHT22;10528;52.124;5.196;2022-12-07T15:34:27;6.30;99.90
20735;DHT22;10528;52.124;5.196;2022-12-07T15:37:05;6.20;99.90
20735;DHT22;10528;52.124;5.196;2022-12-07T15:39:32;6.20;99.90
20735;DHT22;10528;52.124;5.196;2022-12-07T15:42:04;6.20;99.90
20735;DHT22;10528;52.124;5.196;2022-12-07T15:44:31;6.20;99.90
20735;DHT22;10528;52.124;5.196;2022-12-07T15:47:16;6.10;99.90
20735;DHT22;10528;52.124;5.196;2022-12-07T15:49:43;6.20;99.90
20735;DHT22;10528;52.124;5.196;2022-12-07T15:52:10;6.20;99.90
20735;DHT22;10528;52.124;5.196;2022-12-07T15:54:37;6.10;99.90
20735;DHT22;10528;52.124;5.196;2022-12-07T15:57:04;6.10;99.90
20735;DHT22;10528;52.124;5.196;2022-12-07T15:59:31;6.20;99.90
20735;DHT22;10528;52.124;5.196;2022-12-07T16:01:58;6.10;99.90
20735;DHT22;10528;52.124;5.196;2022-12-07T16:04:27;6.20;99.90
20735;DHT22;10528;52.124;5.196;2022-12-07T16:06:56;6.10;99.90
20735;DHT22;10528;52.124;5.196;2022-12-07T16:09:23;6.20;99.90
20735;DHT22;10528;52.124;5.196;2022-12-07T16:11:50;6.10;99.90
20735;DHT22;10528;52.124;5.196;2022-12-07T16:14:18;6.10;99.90
20735;DHT22;10528;52.124;5.196;2022-12-07T16:16:45;6.00;99.90
20735;DHT22;10528;52.124;5.196;2022-12-07T16:19:13;6.10;99.90
20735;DHT22;10528;52.124;5.196;2022-12-07T16:21:40;6.10;99.90
20735;DHT22;10528;52.124;5.196;2022-12-07T16:24:08;6.00;99.90
20735;DHT22;10528;52.124;5.196;2022-12-07T16:26:36;6.00;99.90
20735;DHT22;10528;52.124;5.196;2022-12-07T16:29:03;6.00;99.90
20735;DHT22;10528;52.124;5.196;2022-12-07T16:31:30;6.00;99.90
20735;DHT22;10528;52.124;5.196;2022-12-07T16:33:58;6.00;99.90
20735;DHT22;10528;52.124;5.196;2022-12-07T16:36:25;6.00;99.90
20735;DHT22;10528;52.124;5.196;2022-12-07T16:39:13;5.90;99.90
20735;DHT22;10528;52.124;5.196;2022-12-07T16:41:41;5.90;99.90
20735;DHT22;10528;52.124;5.196;2022-12-07T16:44:11;5.90;99.90
20735;DHT22;10528;52.124;5.196;2022-12-07T16:46:39;5.90;99.90
20735;DHT22;10528;52.124;5.196;2022-12-07T16:49:11;5.90;99.90
20735;DHT22;10528;52.124;5.196;2022-12-07T16:51:39;5.90;99.90
20735;DHT22;10528;52.124;5.196;2022-12-07T16:54:11;5.80;99.90
20735;DHT22;10528;52.124;5.196;2022-12-07T16:56:39;5.80;99.90
20735;DHT22;10528;52.124;5.196;2022-12-07T16:59:06;5.80;99.90
20735;DHT22;10528;52.124;5.196;2022-12-07T17:01:33;5.90;99.90
20735;DHT22;10528;52.124;5.196;2022-12-07T17:04:01;5.90;99.90
20735;DHT22;10528;52.124;5.196;2022-12-07T17:06:29;5.90;99.90
20735;DHT22;10528;52.124;5.196;2022-12-07T17:08:57;5.90;99.90
20735;DHT22;10528;52.124;5.196;2022-12-07T17:11:29;5.90;99.90
20735;DHT22;10528;52.124;5.196;2022-12-07T17:13:59;5.90;99.90
20735;DHT22;10528;52.124;5.196;2022-12-07T17:16:46;5.80;99.90
20735;DHT22;10528;52.124;5.196;2022-12-07T17:19:15;5.80;99.90
20735;DHT22;10528;52.124;5.196;2022-12-07T17:21:43;5.80;99.90
20735;DHT22;10528;52.124;5.196;2022-12-07T17:24:13;5.70;99.90
20735;DHT22;10528;52.124;5.196;2022-12-07T17:26:43;5.70;99.90
20735;DHT22;10528;52.124;5.196;2022-12-07T17:29:13;5.70;99.90
20735;DHT22;10528;52.124;5.196;2022-12-07T17:31:41;5.70;99.90
20735;DHT22;10528;52.124;5.196;2022-12-07T17:34:16;5.80;99.90
20735;DHT22;10528;52.124;5.196;2022-12-07T17:36:43;5.80;99.90
20735;DHT22;10528;52.124;5.196;2022-12-07T17:39:14;5.80;99.90
20735;DHT22;10528;52.124;5.196;2022-12-07T17:41:43;5.80;99.90
20735;DHT22;10528;52.124;5.196;2022-12-07T17:44:29;5.90;99.90
20735;DHT22;10528;52.124;5.196;2022-12-07T17:46:56;5.90;99.90
20735;DHT22;10528;52.124;5.196;2022-12-07T17:49:25;5.80;99.90
20735;DHT22;10528;52.124;5.196;2022-12-07T17:51:53;5.80;99.90
20735;DHT22;10528;52.124;5.196;2022-12-07T17:54:39;5.70;99.90
20735;DHT22;10528;52.124;5.196;2022-12-07T17:57:06;5.70;99.90
20735;DHT22;10528;52.124;5.196;2022-12-07T17:59:33;5.60;99.90
20735;DHT22;10528;52.124;5.196;2022-12-07T18:02:00;5.50;99.90
20735;DHT22;10528;52.124;5.196;2022-12-07T18:04:27;5.60;99.90
20735;DHT22;10528;52.124;5.196;2022-12-07T18:06:54;5.60;99.90
20735;DHT22;10528;52.124;5.196;2022-12-07T18:09:21;5.50;99.90